Time;durP1;ratioP1;P1;durP2;ratioP2;P2;SDS_P1;SDS_P2;PMS_P1;PMS_P2;Temp;Humidity;BMP_temperature;BMP_pressure;BME280_temperature;BME280_humidity;BME280_pressure;Samples;Min_cycle;Max_cycle;Signal;HPM_P1;HPM_P2
2022/05/03 00:00:06;;;;;;;9.63;3.87;;;;;;;9.67;60.47;101128.38;1697967;83;25837;-60
2022/05/03 00:03:15;;;;;;;9.13;3.35;;;;;;;9.62;60.31;101123.38;1686345;83;25809;-60
2022/05/03 00:06:05;;;;;;;7.37;3.93;;;;;;;9.60;60.58;101130.69;1683201;83;27954;-60
2022/05/03 00:08:39;;;;;;;12.88;3.87;;;;;;;9.60;60.73;101133.84;1684391;84;25465;-60
2022/05/03 00:11:29;;;;;;;10.28;4.22;;;;;;;9.60;60.99;101131.16;1706166;83;28262;-61
2022/05/03 00:14:09;;;;;;;8.80;3.45;;;;;;;9.61;61.27;101136.90;1706132;83;53542;-60
2022/05/03 00:16:38;;;;;;;14.20;4.35;;;;;;;9.68;61.67;101131.44;1705630;83;25782;-60
2022/05/03 00:19:06;;;;;;;12.58;4.80;;;;;;;9.68;62.34;101129.59;1706325;83;25811;-60
2022/05/03 00:21:35;;;;;;;18.10;4.60;;;;;;;9.68;62.17;101128.75;1706417;83;25837;-59
2022/05/03 00:24:05;;;;;;;13.78;5.25;;;;;;;9.69;62.93;101132.65;1706515;83;28348;-60
2022/05/03 00:26:35;;;;;;;13.38;5.92;;;;;;;9.69;61.82;101129.09;1706205;84;25711;-60
2022/05/03 00:29:03;;;;;;;15.72;5.08;;;;;;;9.73;62.48;101125.70;1706498;84;25700;-60
2022/05/03 00:31:31;;;;;;;14.23;6.20;;;;;;;9.67;61.87;101138.63;1706329;82;25789;-59
2022/05/03 00:33:59;;;;;;;13.03;5.30;;;;;;;9.62;61.14;101129.21;1681731;84;25850;-60
2022/05/03 00:36:26;;;;;;;15.55;5.75;;;;;;;9.64;61.02;101125.92;1681637;84;28330;-60
2022/05/03 00:38:53;;;;;;;10.70;5.97;;;;;;;9.61;60.98;101120.31;1681557;84;25590;-60
2022/05/03 00:41:41;;;;;;;12.20;5.37;;;;;;;9.61;61.02;101125.69;1681759;85;25666;-60
2022/05/03 00:47:15;;;;;;;12.25;5.90;;;;;;;9.64;61.22;101119.21;1681880;84;26150;-61
2022/05/03 00:50:08;;;;;;;10.23;6.42;;;;;;;9.62;61.69;101119.34;1686224;84;27545;-61
2022/05/03 00:52:49;;;;;;;13.13;6.55;;;;;;;9.60;62.16;101115.91;1684696;85;25725;-61
2022/05/03 00:55:48;;;;;;;11.43;5.75;;;;;;;9.57;61.52;101118.83;1672327;85;25769;-60
2022/05/03 00:58:38;;;;;;;9.25;5.83;;;;;;;9.54;61.48;101113.72;1672479;85;25822;-61
2022/05/03 01:01:27;;;;;;;10.18;6.20;;;;;;;9.48;63.32;101119.55;1668949;85;25828;-61
2022/05/03 01:04:26;;;;;;;11.78;6.53;;;;;;;9.38;63.02;101118.94;1705855;83;27480;-61
2022/05/03 01:07:13;;;;;;;20.08;6.92;;;;;;;9.31;63.65;101114.19;1706246;84;25775;-61
2022/05/03 01:09:43;;;;;;;13.85;7.03;;;;;;;9.22;63.70;101113.92;1706490;84;25802;-59
2022/05/03 01:12:24;;;;;;;19.77;6.58;;;;;;;9.18;63.25;101113.78;1706248;83;25793;-60
2022/05/03 01:15:11;;;;;;;8.75;5.30;;;;;;;9.19;63.62;101109.25;1706395;84;26243;-61
2022/05/03 01:17:49;;;;;;;16.30;6.12;;;;;;;9.20;63.43;101113.65;1706288;84;28202;-61
2022/05/03 01:20:36;;;;;;;13.08;5.47;;;;;;;9.22;63.83;101121.11;1699831;84;25797;-59
2022/05/03 01:23:56;;;;;;;8.38;5.15;;;;;;;9.23;65.23;101113.42;1706275;83;25477;-60
2022/05/03 01:26:38;;;;;;;7.95;5.30;;;;;;;9.18;64.78;101112.94;1706493;83;25920;-60
2022/05/03 01:29:32;;;;;;;7.87;4.90;;;;;;;9.15;64.03;101107.30;1704858;83;25738;-60
2022/05/03 01:32:01;;;;;;;;;;;;;;;9.18;64.18;101106.23;1708423;84;28167;-60
2022/05/03 01:34:31;;;;;;;10.82;4.60;;;;;;;9.17;63.93;101115.25;1684607;85;25768;-61
2022/05/03 01:37:34;;;;;;;10.93;5.00;;;;;;;9.18;64.32;101114.28;1702566;84;25676;-61
2022/05/03 01:40:17;;;;;;;8.53;4.95;;;;;;;9.20;64.42;101110.50;1702357;84;25817;-60
2022/05/03 01:43:21;;;;;;;10.13;4.90;;;;;;;9.23;64.76;101116.11;1702558;84;25766;-61
2022/05/03 01:46:18;;;;;;;12.53;4.60;;;;;;;9.17;64.48;101113.41;1702378;84;27608;-60
2022/05/03 01:52:43;;;;;;;13.20;4.45;;;;;;;9.15;64.02;101115.34;1648154;87;25716;-60
2022/05/03 01:55:55;;;;;;;10.08;5.33;;;;;;;9.14;63.87;101110.11;1710445;83;26670;-60
2022/05/03 01:58:37;;;;;;;13.08;4.87;;;;;;;9.19;63.60;101115.97;1720156;81;25769;-60
2022/05/03 02:01:26;;;;;;;14.98;4.33;;;;;;;9.25;63.31;101122.22;1720943;83;27537;-60
2022/05/03 02:04:14;;;;;;;8.03;4.65;;;;;;;9.28;63.04;101113.91;1741155;82;25973;-60
2022/05/03 02:07:20;;;;;;;8.45;3.98;;;;;;;9.31;62.84;101119.55;1692497;84;25515;-60
2022/05/03 02:10:06;;;;;;;15.28;4.40;;;;;;;9.27;62.65;101115.37;1740756;82;25770;-60
2022/05/03 02:12:34;;;;;;;12.47;4.05;;;;;;;9.16;63.01;101120.25;1741451;82;25538;-61
2022/05/03 02:15:10;;;;;;;16.77;4.90;;;;;;;9.10;63.06;101118.89;1741731;82;27481;-60
2022/05/03 02:18:05;;;;;;;8.83;4.95;;;;;;;9.05;62.94;101121.09;1741977;82;25503;-60
2022/05/03 02:20:58;;;;;;;10.48;4.50;;;;;;;8.99;63.18;101124.22;1741810;82;25728;-60
2022/05/03 02:23:51;;;;;;;10.27;4.93;;;;;;;8.92;63.72;101111.75;1742069;82;26551;-60
2022/05/03 02:26:44;;;;;;;11.05;4.28;;;;;;;8.83;63.62;101121.37;1741867;82;25870;-60
2022/05/03 02:29:14;;;;;;;7.58;4.00;;;;;;;8.79;63.38;101116.34;1741686;82;27553;-61
2022/05/03 02:31:51;;;;;;;14.23;4.67;;;;;;;8.76;64.42;101119.62;1741106;82;27388;-61
2022/05/03 02:34:47;;;;;;;10.00;3.90;;;;;;;8.72;63.81;101128.89;1716949;82;25898;-61
2022/05/03 02:37:38;;;;;;;16.05;5.28;;;;;;;8.70;64.00;101121.44;1715145;83;26197;-60
2022/05/03 02:40:12;;;;;;;6.10;3.70;;;;;;;8.71;63.97;101131.20;1714240;83;25774;-60
2022/05/03 02:42:40;;;;;;;12.40;3.60;;;;;;;8.75;64.14;101128.64;1715230;83;28014;-61
2022/05/03 02:45:09;;;;;;;10.70;3.50;;;;;;;8.79;64.55;101132.45;1715301;83;25758;-61
2022/05/03 02:48:18;;;;;;;4.78;3.00;;;;;;;8.83;64.11;101135.28;1715166;83;25769;-60
2022/05/03 02:51:03;;;;;;;8.48;3.40;;;;;;;8.84;65.03;101133.81;1728116;81;25864;-61
2022/05/03 02:53:47;;;;;;;7.42;4.03;;;;;;;8.86;64.41;101129.19;1690552;84;25728;-61
2022/05/03 02:56:31;;;;;;;16.42;4.20;;;;;;;8.90;64.56;101130.66;1682953;84;28238;-60
2022/05/03 02:59:23;;;;;;;;;;;;;;;8.92;64.25;101126.03;1682624;85;25765;-61
2022/05/03 03:02:11;;;;;;;5.60;3.27;;;;;;;8.91;64.21;101127.50;1679828;83;25469;-61
2022/05/03 03:04:58;;;;;;;6.75;2.90;;;;;;;8.86;64.50;101130.53;1705058;82;25799;-60
2022/05/03 03:07:28;;;;;;;7.87;4.08;;;;;;;8.78;64.52;101132.95;1674246;84;25492;-61
2022/05/03 03:10:05;;;;;;;14.83;3.70;;;;;;;8.75;64.70;101129.14;1695367;84;29492;-60
2022/05/03 03:13:13;;;;;;;6.28;3.37;;;;;;;8.74;64.42;101134.12;1746266;82;25763;-60
2022/05/03 03:15:41;;;;;;;15.95;3.85;;;;;;;8.77;64.29;101132.57;1746539;81;25729;-60
2022/05/03 03:18:15;;;;;;;16.27;3.72;;;;;;;8.82;64.02;101132.22;1746392;82;25795;-59
2022/05/03 03:20:48;;;;;;;10.50;3.33;;;;;;;8.84;63.92;101130.26;1746508;81;33202;-60
2022/05/03 03:23:18;;;;;;;4.87;3.05;;;;;;;8.88;63.76;101127.22;1746600;82;27463;-60
2022/05/03 03:25:47;;;;;;;4.75;2.85;;;;;;;8.92;63.50;101132.74;1746457;82;25831;-60
2022/05/03 03:28:19;;;;;;;8.08;2.98;;;;;;;8.96;63.33;101132.02;1746193;81;25807;-60
2022/05/03 03:30:49;;;;;;;7.30;3.05;;;;;;;8.96;64.04;101126.66;1746456;82;26458;-60
2022/05/03 03:33:18;;;;;;;17.35;3.02;;;;;;;8.88;63.51;101126.38;1719790;82;26109;-60
2022/05/03 03:35:47;;;;;;;8.20;3.60;;;;;;;8.88;63.61;101133.94;1712883;83;27402;-60
2022/05/03 03:38:15;;;;;;;9.60;2.72;;;;;;;8.90;63.76;101133.84;1712563;83;25728;-61
2022/05/03 03:40:45;;;;;;;8.60;3.00;;;;;;;8.97;63.87;101132.39;1748691;81;25497;-61
2022/05/03 03:43:15;;;;;;;8.10;2.80;;;;;;;9.03;64.98;101133.25;1753807;81;25884;-60
2022/05/03 03:45:42;;;;;;;7.00;3.15;;;;;;;9.05;64.16;101131.31;1753875;81;25829;-60
2022/05/03 03:48:10;;;;;;;6.60;3.80;;;;;;;9.14;64.16;101133.80;1753560;81;27522;-61
2022/05/03 03:50:39;;;;;;;14.95;5.75;;;;;;;9.25;64.16;101141.02;1724553;81;25711;-60
2022/05/03 03:53:07;;;;;;;12.47;3.17;;;;;;;9.35;64.27;101139.33;1709112;83;25821;-60
2022/05/03 03:55:36;;;;;;;14.20;3.25;;;;;;;9.50;64.10;101139.09;1709255;83;25754;-60
2022/05/03 03:58:04;;;;;;;11.40;3.40;;;;;;;9.63;64.01;101146.58;1708960;84;25802;-60
2022/05/03 04:00:31;;;;;;;15.78;3.10;;;;;;;9.80;63.85;101143.03;1708643;84;27464;-61
2022/05/03 04:02:58;;;;;;;13.30;3.70;;;;;;;9.92;63.62;101146.57;1710304;83;25709;-60
2022/05/03 04:05:27;;;;;;;8.73;3.55;;;;;;;10.02;63.41;101143.52;1738077;82;25792;-60
2022/05/03 04:07:54;;;;;;;12.07;5.47;;;;;;;10.12;63.22;101147.65;1738053;82;25485;-60
2022/05/03 04:10:22;;;;;;;34.88;9.18;;;;;;;10.21;62.82;101144.72;1738046;82;25778;-60
2022/05/03 04:12:49;;;;;;;18.92;4.45;;;;;;;10.28;62.60;101146.77;1737957;82;27631;-61
2022/05/03 04:15:16;;;;;;;18.00;3.98;;;;;;;10.37;62.45;101147.89;1737982;82;25845;-61
2022/05/03 04:17:44;;;;;;;32.70;3.90;;;;;;;10.44;62.24;101149.59;1737886;82;25724;-61
2022/05/03 04:20:18;;;;;;;20.40;4.87;;;;;;;10.50;62.05;101147.73;1738068;81;25838;-61
2022/05/03 04:22:45;;;;;;;20.68;4.20;;;;;;;10.56;62.02;101147.22;1738130;82;25466;-61
2022/05/03 04:25:12;;;;;;;16.67;3.98;;;;;;;10.65;61.80;101142.92;1738022;81;27563;-60
2022/05/03 04:27:39;;;;;;;18.65;4.05;;;;;;;10.72;61.47;101143.25;1737939;82;25755;-61
2022/05/03 04:30:08;;;;;;;16.60;3.27;;;;;;;10.75;61.45;101137.14;1737990;82;25739;-61
2022/05/03 04:32:36;;;;;;;17.07;5.12;;;;;;;10.82;61.37;101137.46;1734896;82;25877;-61
2022/05/03 04:35:04;;;;;;;16.17;3.70;;;;;;;10.89;61.33;101139.99;1729840;82;25664;-61
2022/05/03 04:37:31;;;;;;;42.30;5.58;;;;;;;10.96;61.35;101138.98;1729883;82;27531;-61
2022/05/03 04:39:58;;;;;;;20.62;3.72;;;;;;;11.03;60.88;101135.30;1729646;82;25484;-60
2022/05/03 04:42:25;;;;;;;31.70;4.03;;;;;;;11.12;60.74;101133.17;1729799;82;25797;-58
2022/05/03 04:48:40;;;;;;;38.17;5.72;;;;;;;11.30;60.34;101132.06;1667067;86;25808;-60
2022/05/03 04:51:25;;;;;;;15.08;4.45;;;;;;;11.41;60.19;101133.85;1676673;82;27485;-60
2022/05/03 04:53:53;;;;;;;9.58;3.37;;;;;;;11.47;59.57;101140.55;1695039;84;25483;-61
2022/05/03 04:56:23;;;;;;;14.65;2.98;;;;;;;11.54;59.26;101137.69;1690605;84;25726;-59
2022/05/03 04:58:51;;;;;;;11.97;4.33;;;;;;;11.60;59.02;101137.14;1685387;84;26005;-60
2022/05/03 05:01:19;;;;;;;24.25;3.52;;;;;;;11.67;58.90;101136.95;1688345;84;25837;-60
2022/05/03 05:03:46;;;;;;;26.60;5.55;;;;;;;11.75;58.63;101133.59;1743554;82;28179;-60
2022/05/03 05:06:14;;;;;;;19.27;7.70;;;;;;;11.79;58.43;101139.06;1743437;81;25819;-60
2022/05/03 05:08:43;;;;;;;51.48;5.28;;;;;;;11.84;58.20;101130.56;1743409;82;25540;-60
2022/05/03 05:11:11;;;;;;;14.70;3.72;;;;;;;11.90;57.98;101127.34;1743647;81;25868;-60
2022/05/03 05:13:39;;;;;;;27.48;3.83;;;;;;;11.99;57.86;101127.04;1742801;81;25523;-60
2022/05/03 05:16:08;;;;;;;9.58;3.10;;;;;;;12.07;57.64;101126.37;1710545;83;27476;-60
2022/05/03 05:18:36;;;;;;;14.43;3.47;;;;;;;12.14;57.56;101126.17;1710763;83;25738;-60
2022/05/03 05:21:03;;;;;;;12.75;4.17;;;;;;;12.25;57.49;101129.23;1710499;83;25736;-60
2022/05/03 05:23:30;;;;;;;15.00;4.05;;;;;;;12.36;57.22;101123.25;1710789;82;25810;-60
2022/05/03 05:25:57;;;;;;;10.28;3.62;;;;;;;12.43;57.11;101128.08;1710607;83;25886;-60
2022/05/03 05:28:26;;;;;;;29.87;3.70;;;;;;;12.52;57.05;101124.03;1710868;83;27663;-60
2022/05/03 05:30:53;;;;;;;17.60;4.37;;;;;;;12.60;56.66;101124.69;1710520;83;25740;-60
2022/05/03 05:33:22;;;;;;;18.12;4.70;;;;;;;12.65;56.61;101123.77;1704829;83;25726;-59
2022/05/03 05:35:51;;;;;;;22.77;5.28;;;;;;;12.74;56.49;101127.95;1672652;85;26793;-59
2022/05/03 05:38:19;;;;;;;20.70;4.72;;;;;;;12.79;56.37;101127.89;1672901;85;25754;-60
2022/05/03 05:40:47;;;;;;;28.73;5.20;;;;;;;12.90;56.09;101127.39;1672598;85;28586;-59
2022/05/03 05:43:15;;;;;;;22.05;5.80;;;;;;;12.97;55.91;101121.29;1672758;85;25870;-59
2022/05/03 05:45:43;;;;;;;25.20;5.03;;;;;;;13.08;55.89;101123.48;1672682;85;25776;-60
2022/05/03 05:48:13;;;;;;;26.07;4.97;;;;;;;13.15;55.77;101125.95;1672762;85;26524;-60
2022/05/03 05:50:40;;;;;;;17.62;4.60;;;;;;;13.23;55.55;101134.67;1672624;85;25819;-59
2022/05/03 05:55:53;;;;;;;22.48;5.58;;;;;;;13.34;55.14;101130.46;1672295;85;26263;-60
2022/05/03 05:58:20;;;;;;;12.40;4.00;;;;;;;13.42;54.78;101129.27;1672273;85;25906;-59
2022/05/03 06:00:47;;;;;;;14.45;4.28;;;;;;;13.51;54.62;101129.38;1672326;85;26024;-59
2022/05/03 06:03:16;;;;;;;18.55;4.33;;;;;;;13.59;54.41;101137.12;1671832;85;25785;-60
2022/05/03 06:05:43;;;;;;;19.85;4.87;;;;;;;13.64;53.42;101135.33;1671603;85;27488;-60
2022/05/03 06:08:10;;;;;;;28.38;5.20;;;;;;;13.75;53.62;101133.80;1671971;85;25839;-60
2022/05/03 06:10:37;;;;;;;17.17;4.95;;;;;;;13.87;53.43;101127.70;1672061;85;25756;-60
2022/05/03 06:13:05;;;;;;;21.40;4.70;;;;;;;13.99;53.25;101132.41;1671913;85;25852;-60
2022/05/03 06:15:32;;;;;;;16.27;4.55;;;;;;;14.10;52.82;101127.29;1672419;85;25736;-60
2022/05/03 06:18:01;;;;;;;15.70;5.05;;;;;;;14.20;52.72;101128.61;1671923;85;27485;-60
2022/05/03 06:20:28;;;;;;;14.00;5.30;;;;;;;14.30;52.40;101127.19;1672008;85;25826;-60
2022/05/03 06:22:55;;;;;;;12.75;4.97;;;;;;;14.40;52.09;101113.93;1672057;85;25491;-59
2022/05/03 06:25:23;;;;;;;23.05;5.35;;;;;;;14.53;51.81;101116.77;1671963;85;25833;-59
2022/05/03 06:27:51;;;;;;;25.90;5.65;;;;;;;14.61;51.29;101121.43;1671955;85;25748;-59
2022/05/03 06:30:18;;;;;;;20.27;4.67;;;;;;;14.72;51.06;101123.92;1672151;85;27507;-59
2022/05/03 06:32:45;;;;;;;12.18;4.03;;;;;;;14.81;50.50;101120.28;1691673;83;27289;-60
2022/05/03 06:35:13;;;;;;;32.58;4.30;;;;;;;14.92;50.55;101112.44;1711996;83;25757;-60
2022/05/03 06:37:42;;;;;;;13.30;5.17;;;;;;;15.06;50.29;101120.48;1711601;83;25812;-59
2022/05/03 06:40:11;;;;;;;20.27;4.97;;;;;;;15.18;50.08;101111.09;1712025;83;25857;-60
2022/05/03 06:42:40;;;;;;;18.98;4.97;;;;;;;15.29;49.67;101111.34;1711700;83;27457;-60
2022/05/03 06:45:10;;;;;;;15.18;4.97;;;;;;;15.43;49.61;101111.78;1711771;83;25472;-61
2022/05/03 06:47:38;;;;;;;14.15;4.17;;;;;;;15.57;49.32;101106.27;1711539;83;25812;-60
2022/05/03 06:50:09;;;;;;;20.50;4.70;;;;;;;15.71;48.51;101117.86;1694430;83;25941;-60
2022/05/03 06:52:42;;;;;;;16.25;4.92;;;;;;;15.83;47.38;101108.92;1671873;85;25765;-60
2022/05/03 06:55:22;;;;;;;19.37;4.50;;;;;;;15.93;47.13;101116.47;1701715;84;27491;-60
2022/05/03 06:57:50;;;;;;;18.45;4.75;;;;;;;16.05;46.60;101115.66;1662451;85;25720;-60
2022/05/03 07:00:18;;;;;;;14.18;4.60;;;;;;;16.16;46.67;101115.89;1645252;87;25683;-59
2022/05/03 07:02:45;;;;;;;14.90;4.12;;;;;;;16.27;44.70;101113.37;1683174;85;25799;-60
2022/05/03 07:05:12;;;;;;;17.85;4.92;;;;;;;16.39;45.26;101116.62;1684331;85;25728;-60
2022/05/03 07:07:39;;;;;;;17.25;4.28;;;;;;;16.52;45.41;101114.28;1684100;85;27500;-59
2022/05/03 07:10:08;;;;;;;16.90;4.45;;;;;;;16.70;45.21;101111.93;1683973;84;25925;-59
2022/05/03 07:12:34;;;;;;;28.90;4.47;;;;;;;16.94;45.14;101121.13;1684119;84;25765;-59
2022/05/03 07:15:08;;;;;;;13.55;3.70;;;;;;;17.11;44.47;101113.31;1683985;84;25780;-60
2022/05/03 07:23:04;;;;;;;17.07;3.90;;;;;;;17.55;43.19;101111.20;1683812;84;25885;-61
2022/05/03 07:25:32;;;;;;;23.27;4.85;;;;;;;17.67;43.11;101113.38;1683961;85;25738;-61
2022/05/03 07:27:59;;;;;;;20.32;4.20;;;;;;;17.81;41.80;101110.44;1684006;83;26328;-60
2022/05/03 07:30:26;;;;;;;17.60;3.65;;;;;;;17.89;41.59;101109.56;1684045;83;25774;-60
2022/05/03 07:32:54;;;;;;;37.17;4.87;;;;;;;17.98;40.72;101106.31;1681081;83;28282;-60
2022/05/03 07:35:21;;;;;;;20.17;3.10;;;;;;;18.06;41.04;101109.52;1678534;84;25924;-60
2022/05/03 07:37:51;;;;;;;14.28;3.55;;;;;;;18.15;40.86;101114.73;1678529;85;25544;-59
2022/05/03 07:40:19;;;;;;;23.02;4.58;;;;;;;18.26;40.19;101109.92;1678662;85;26491;-59
2022/05/03 07:42:47;;;;;;;13.68;3.40;;;;;;;18.35;39.42;101103.92;1678971;85;25891;-60
2022/05/03 07:45:15;;;;;;;19.20;2.72;;;;;;;18.43;38.13;101100.63;1678476;85;27470;-60
2022/05/03 07:47:42;;;;;;;12.43;4.12;;;;;;;18.52;38.63;101108.73;1678554;85;26058;-61
2022/05/03 07:50:10;;;;;;;9.98;2.98;;;;;;;18.63;38.11;101102.88;1678574;85;25753;-60
2022/05/03 07:52:39;;;;;;;14.45;2.90;;;;;;;18.75;38.11;101104.16;1678776;85;25779;-61
2022/05/03 07:55:08;;;;;;;22.27;3.95;;;;;;;18.83;37.60;101104.59;1678611;85;25908;-60
2022/05/03 07:57:35;;;;;;;15.63;3.22;;;;;;;18.98;36.96;101103.31;1690406;84;28458;-60
2022/05/03 08:00:05;;;;;;;17.48;2.72;;;;;;;19.09;36.24;101106.14;1704528;84;25811;-60
2022/05/03 08:02:32;;;;;;;10.18;1.75;;;;;;;19.19;33.63;101108.06;1700981;83;25749;-60
2022/05/03 08:04:59;;;;;;;14.73;2.55;;;;;;;19.26;31.04;101104.61;1689563;84;25950;-60
2022/05/03 08:07:26;;;;;;;6.15;1.67;;;;;;;19.26;32.20;101106.81;1689953;84;25702;-60
2022/05/03 08:09:54;;;;;;;3.55;1.67;;;;;;;19.33;32.04;101105.56;1689722;84;27571;-60
2022/05/03 08:12:24;;;;;;;12.15;1.80;;;;;;;19.38;32.33;101103.11;1689942;84;25783;-60
2022/05/03 08:14:52;;;;;;;6.58;1.77;;;;;;;19.54;32.59;101100.19;1689662;84;25680;-61
2022/05/03 08:17:19;;;;;;;5.58;1.35;;;;;;;19.75;30.78;101101.87;1689898;84;26678;-61
2022/05/03 08:19:46;;;;;;;9.98;1.55;;;;;;;19.80;30.25;101098.90;1689730;84;25757;-60
2022/05/03 08:22:13;;;;;;;4.15;1.40;;;;;;;19.90;30.06;101108.19;1689982;84;27449;-61
2022/05/03 08:24:40;;;;;;;7.00;1.75;;;;;;;19.97;29.52;101095.45;1689406;84;25837;-60
2022/05/03 08:27:07;;;;;;;4.17;1.70;;;;;;;20.09;29.80;101099.08;1689992;84;26466;-60
2022/05/03 08:29:34;;;;;;;9.70;1.60;;;;;;;20.16;30.00;101096.77;1689611;84;25823;-61
2022/05/03 08:32:02;;;;;;;7.20;1.98;;;;;;;20.20;29.69;101105.92;1689970;84;25777;-61
2022/05/03 08:34:29;;;;;;;6.53;1.90;;;;;;;20.28;28.94;101094.37;1689629;84;27574;-60
2022/05/03 08:42:15;;;;;;;9.10;1.87;;;;;;;20.66;27.92;101100.66;1689582;84;25785;-59
2022/05/03 08:44:42;;;;;;;8.50;1.40;;;;;;;20.69;26.98;101098.88;1689951;84;25844;-60
2022/05/03 08:47:09;;;;;;;6.83;1.40;;;;;;;20.77;27.45;101102.88;1686577;84;27345;-60
2022/05/03 08:49:56;;;;;;;3.58;1.50;;;;;;;20.79;27.77;101096.70;1683508;84;25501;-60
2022/05/03 08:52:28;;;;;;;3.98;1.22;;;;;;;20.88;27.44;101099.62;1689657;84;25783;-60
2022/05/03 08:54:56;;;;;;;7.50;1.30;;;;;;;20.95;27.01;101095.05;1689844;84;26158;-60
2022/05/03 08:57:23;;;;;;;5.83;2.00;;;;;;;20.91;27.51;101100.61;1689653;84;25744;-61
2022/05/03 08:59:52;;;;;;;8.18;1.27;;;;;;;20.92;27.11;101087.77;1689652;84;28312;-61
2022/05/03 09:02:19;;;;;;;4.47;1.25;;;;;;;20.98;27.62;101091.06;1689526;84;25772;-61
2022/05/03 09:04:47;;;;;;;7.40;1.37;;;;;;;21.14;27.07;101097.31;1689474;84;25730;-61
2022/05/03 09:07:21;;;;;;;3.02;1.35;;;;;;;21.23;26.84;101094.22;1689575;84;25993;-60
2022/05/03 09:09:51;;;;;;;8.55;2.00;;;;;;;21.37;26.80;101085.58;1682544;85;26148;-60
2022/05/03 09:12:28;;;;;;;7.37;2.08;;;;;;;21.57;27.09;101078.86;1682687;85;27563;-60
2022/05/03 09:14:59;;;;;;;7.55;2.10;;;;;;;21.82;27.42;101078.91;1682419;85;25828;-61
2022/05/03 09:17:41;;;;;;;9.93;2.10;;;;;;;22.06;27.65;101077.55;1682534;85;25841;-60
2022/05/03 09:26:24;;;;;;;3.10;1.60;;;;;;;22.89;27.16;101075.09;1682498;85;27477;-60
2022/05/03 09:29:07;;;;;;;8.73;1.90;;;;;;;23.06;25.24;101073.28;1682402;85;25879;-60
2022/05/03 09:31:43;;;;;;;1.90;1.40;;;;;;;23.18;26.22;101065.25;1682463;84;25309;-61
2022/05/03 09:34:26;;;;;;;5.65;1.65;;;;;;;23.26;25.87;101059.05;1665799;86;25956;-61
2022/05/03 09:37:05;;;;;;;5.17;1.85;;;;;;;23.43;25.19;101054.48;1666088;85;25767;-60
2022/05/03 09:39:38;;;;;;;5.80;1.72;;;;;;;23.34;25.14;101056.63;1665863;86;27499;-60
2022/05/03 09:42:20;;;;;;;3.83;1.60;;;;;;;23.44;24.34;101061.11;1665610;86;25736;-59
2022/05/03 09:45:02;;;;;;;7.90;1.57;;;;;;;23.68;24.06;101052.39;1665721;86;25839;-59
2022/05/03 09:47:33;;;;;;;3.92;1.40;;;;;;;24.32;23.96;101053.91;1666149;86;25898;-60
2022/05/03 09:50:01;;;;;;;7.53;1.67;;;;;;;24.91;22.54;101053.73;1665998;86;26082;-60
2022/05/03 09:52:39;;;;;;;8.18;1.77;;;;;;;24.77;23.34;101048.33;1666120;86;28202;-60
2022/05/03 09:55:09;;;;;;;3.98;1.55;;;;;;;24.76;23.46;101048.02;1665812;85;25741;-61
2022/05/03 09:57:39;;;;;;;5.12;1.50;;;;;;;25.02;22.42;101054.89;1677276;83;25741;-61
2022/05/03 10:00:10;;;;;;;3.75;1.55;;;;;;;25.07;22.65;101045.41;1726475;83;26538;-61
2022/05/03 10:02:43;;;;;;;2.80;1.30;;;;;;;25.16;21.51;101042.16;1726599;83;25763;-60
2022/05/03 10:05:12;;;;;;;5.35;1.80;;;;;;;25.34;21.56;101050.13;1726657;82;27469;-61
2022/05/03 10:07:43;;;;;;;7.40;1.70;;;;;;;25.85;22.16;101040.34;1726444;83;25727;-60
2022/05/03 10:10:12;;;;;;;8.75;2.35;;;;;;;26.20;21.36;101036.41;1726744;82;25828;-60
2022/05/03 10:12:39;;;;;;;5.95;2.08;;;;;;;26.78;21.25;101027.14;1726552;82;26455;-60
2022/05/03 10:15:07;;;;;;;8.43;2.10;;;;;;;27.24;21.59;101019.11;1726430;83;25737;-60
2022/05/03 10:20:46;;;;;;;10.60;2.20;;;;;;;27.06;21.40;101024.77;1726523;83;27290;-60
2022/05/03 10:23:30;;;;;;;5.72;2.05;;;;;;;26.38;21.79;101027.22;1726680;82;25831;-60
2022/05/03 10:26:08;;;;;;;15.32;1.95;;;;;;;26.29;22.10;101022.29;1726824;83;25791;-60
2022/05/03 10:29:02;;;;;;;7.05;1.70;;;;;;;26.17;20.67;101033.28;1726518;83;25757;-60
2022/05/03 10:31:29;;;;;;;2.98;1.42;;;;;;;25.89;20.59;101028.62;1694441;84;27430;-60
2022/05/03 10:33:57;;;;;;;3.62;1.60;;;;;;;25.47;20.60;101027.14;1686096;84;25783;-60
2022/05/03 10:36:36;;;;;;;2.35;1.20;;;;;;;25.38;19.82;101032.62;1713819;82;25970;-61
2022/05/03 10:39:23;;;;;;;3.58;1.60;;;;;;;25.40;19.97;101019.50;1713396;83;25807;-60
2022/05/03 10:42:03;;;;;;;5.10;1.45;;;;;;;25.31;20.06;101026.66;1713719;83;26159;-60
2022/05/03 10:45:03;;;;;;;6.40;1.15;;;;;;;25.39;19.89;101015.89;1712865;82;27496;-61
2022/05/03 10:47:49;;;;;;;5.15;1.30;;;;;;;25.48;18.87;101023.33;1713470;82;25877;-60
2022/05/03 10:50:20;;;;;;;4.35;1.37;;;;;;;25.48;19.54;101012.30;1699012;82;25691;-60
2022/05/03 10:53:08;;;;;;;10.95;1.70;;;;;;;25.66;19.49;101019.70;1684889;85;25767;-61
2022/05/03 10:55:40;;;;;;;4.62;1.25;;;;;;;25.57;19.97;101012.82;1684763;83;25535;-61
2022/05/03 10:58:30;;;;;;;6.00;2.02;;;;;;;25.93;20.19;101005.05;1676576;84;27557;-61
2022/05/03 11:01:08;;;;;;;15.30;2.20;;;;;;;26.49;19.12;100999.91;1668903;85;25785;-60
2022/05/03 11:03:39;;;;;;;8.60;1.77;;;;;;;27.44;19.41;100995.78;1629751;86;25681;-62
2022/05/03 11:06:28;;;;;;;9.23;1.57;;;;;;;28.40;18.89;100987.42;1698228;84;26017;-61
2022/05/03 11:11:44;;;;;;;5.20;1.50;;;;;;;29.70;17.13;100989.58;1697970;83;27471;-61
2022/05/03 11:14:24;;;;;;;4.83;1.40;;;;;;;30.19;16.90;100979.58;1698111;84;25823;-61
2022/05/03 11:17:05;;;;;;;4.78;1.57;;;;;;;30.53;17.08;100974.61;1698210;84;25865;-61
2022/05/03 11:19:36;;;;;;;6.15;1.35;;;;;;;31.07;16.89;100968.57;1698176;84;25798;-61
2022/05/03 11:22:11;;;;;;;6.42;1.65;;;;;;;31.28;17.11;100965.94;1698652;84;25853;-61
2022/05/03 11:24:44;;;;;;;4.33;1.47;;;;;;;31.40;16.75;100965.16;1698113;83;27463;-61
2022/05/03 11:27:14;;;;;;;7.33;1.45;;;;;;;31.51;16.36;100957.69;1698386;84;25860;-61
2022/05/03 11:29:52;;;;;;;8.18;1.60;;;;;;;31.76;16.30;100953.33;1698226;84;25757;-59
2022/05/03 11:32:32;;;;;;;2.37;1.20;;;;;;;31.95;15.44;100942.53;1701329;84;26454;-60
2022/05/03 11:35:09;;;;;;;3.85;1.50;;;;;;;31.96;15.75;100935.86;1708187;84;25523;-60
2022/05/03 11:37:46;;;;;;;3.62;1.47;;;;;;;32.03;15.43;100933.64;1708650;84;27445;-61
2022/05/03 11:40:15;;;;;;;8.20;1.42;;;;;;;32.06;15.17;100937.81;1708184;84;25814;-60
2022/05/03 11:42:44;;;;;;;6.22;1.20;;;;;;;32.26;14.85;100944.81;1708511;83;25669;-60
2022/05/03 11:45:13;;;;;;;4.28;1.62;;;;;;;32.04;14.82;100931.68;1708281;84;25884;-60
2022/05/03 11:47:47;;;;;;;3.42;1.45;;;;;;;31.77;14.96;100933.61;1708448;84;25654;-61
2022/05/03 11:56:06;;;;;;;12.63;1.70;;;;;;;31.58;15.62;100917.95;1708542;84;25814;-60
2022/05/03 11:58:33;;;;;;;12.47;1.67;;;;;;;32.47;14.43;100907.19;1717496;81;25936;-62
2022/05/03 12:01:01;;;;;;;10.28;1.90;;;;;;;32.47;14.43;100907.19;1741494;82;25757;-61
2022/05/03 12:03:28;;;;;;;4.50;1.67;;;;;;;32.86;13.99;100906.59;1732644;82;28518;-61
2022/05/03 12:05:58;;;;;;;13.70;2.83;;;;;;;33.07;13.97;100901.77;1732253;82;25805;-61
2022/05/03 12:08:25;;;;;;;27.15;3.50;;;;;;;33.29;14.40;100902.50;1732814;82;25686;-61
2022/05/03 12:10:56;;;;;;;17.32;1.57;;;;;;;33.40;14.39;100898.58;1732607;82;25817;-61
2022/05/03 12:13:29;;;;;;;2.87;1.25;;;;;;;33.32;13.67;100900.55;1732681;82;25798;-61
2022/05/03 12:16:06;;;;;;;1.98;0.95;;;;;;;32.84;13.26;100896.85;1732841;82;28178;-60
2022/05/03 12:18:48;;;;;;;7.25;1.15;;;;;;;32.48;13.52;100891.34;1734807;81;25797;-60
2022/05/03 12:21:26;;;;;;;1.75;1.20;;;;;;;32.09;14.09;100884.40;1741533;82;25766;-60
2022/05/03 12:24:01;;;;;;;6.17;1.40;;;;;;;31.87;13.90;100885.50;1741505;82;25946;-60
2022/05/03 12:26:44;;;;;;;6.05;1.40;;;;;;;31.46;14.38;100886.80;1739885;82;25849;-60
2022/05/03 12:29:13;;;;;;;22.50;2.15;;;;;;;31.41;14.06;100875.11;1741229;80;27430;-58
2022/05/03 12:31:43;;;;;;;6.25;1.40;;;;;;;31.07;14.85;100870.80;1740782;82;25785;-59
2022/05/03 12:34:22;;;;;;;7.60;1.20;;;;;;;31.06;15.06;100869.70;1733076;82;25490;-58
2022/05/03 12:36:49;;;;;;;3.58;1.60;;;;;;;31.12;14.61;100874.19;1733043;82;27987;-58